sensor_id;sensor_type;location;lat;lon;timestamp;pressure;altitude;pressure_sealevel;temperature;humidity
55592;BME280;41454;53.396;-1.510;2023-12-07T00:02:05;99939.95;;;4.05;100.00
55592;BME280;41454;53.396;-1.510;2023-12-07T00:04:32;99939.81;;;4.24;99.95
55592;BME280;41454;53.396;-1.510;2023-12-07T00:06:59;99935.31;;;4.28;100.00
55592;BME280;41454;53.396;-1.510;2023-12-07T00:09:26;99934.64;;;3.99;100.00
55592;BME280;41454;53.396;-1.510;2023-12-07T00:11:53;99931.21;;;3.59;100.00
55592;BME280;41454;53.396;-1.510;2023-12-07T00:14:20;99924.91;;;3.90;100.00
55592;BME280;41454;53.396;-1.510;2023-12-07T00:16:47;99919.96;;;3.98;100.00
55592;BME280;41454;53.396;-1.510;2023-12-07T00:19:14;99921.01;;;3.55;100.00
55592;BME280;41454;53.396;-1.510;2023-12-07T00:21:41;99923.17;;;3.89;100.00
55592;BME280;41454;53.396;-1.510;2023-12-07T00:24:09;99917.90;;;3.46;100.00
55592;BME280;41454;53.396;-1.510;2023-12-07T00:26:36;99916.25;;;3.23;100.00
55592;BME280;41454;53.396;-1.510;2023-12-07T00:29:04;99910.60;;;4.08;100.00
55592;BME280;41454;53.396;-1.510;2023-12-07T00:31:31;99913.31;;;3.09;100.00
55592;BME280;41454;53.396;-1.510;2023-12-07T00:33:57;99908.13;;;3.41;100.00
55592;BME280;41454;53.396;-1.510;2023-12-07T00:36:24;99904.35;;;3.15;100.00
55592;BME280;41454;53.396;-1.510;2023-12-07T00:38:51;99897.38;;;2.85;100.00
55592;BME280;41454;53.396;-1.510;2023-12-07T00:41:18;99890.24;;;2.97;100.00
55592;BME280;41454;53.396;-1.510;2023-12-07T00:43:45;99886.27;;;2.89;100.00
55592;BME280;41454;53.396;-1.510;2023-12-07T00:46:12;99878.26;;;2.16;100.00
55592;BME280;41454;53.396;-1.510;2023-12-07T00:48:40;99877.80;;;2.94;100.00
55592;BME280;41454;53.396;-1.510;2023-12-07T00:51:07;99872.72;;;2.84;100.00
55592;BME280;41454;53.396;-1.510;2023-12-07T00:53:34;99867.17;;;2.58;100.00
55592;BME280;41454;53.396;-1.510;2023-12-07T00:56:03;99865.18;;;3.76;100.00
55592;BME280;41454;53.396;-1.510;2023-12-07T00:58:30;99861.10;;;3.67;100.00
55592;BME280;41454;53.396;-1.510;2023-12-07T01:00:57;99857.14;;;3.79;100.00
55592;BME280;41454;53.396;-1.510;2023-12-07T01:03:24;99848.74;;;4.13;100.00
55592;BME280;41454;53.396;-1.510;2023-12-07T01:05:51;99849.02;;;3.82;100.00
55592;BME280;41454;53.396;-1.510;2023-12-07T01:08:19;99850.89;;;3.79;100.00
55592;BME280;41454;53.396;-1.510;2023-12-07T01:10:46;99851.81;;;3.77;100.00
55592;BME280;41454;53.396;-1.510;2023-12-07T01:13:13;99853.22;;;3.69;100.00
55592;BME280;41454;53.396;-1.510;2023-12-07T01:15:40;99850.51;;;4.02;100.00
55592;BME280;41454;53.396;-1.510;2023-12-07T01:18:08;99847.71;;;2.90;100.00
55592;BME280;41454;53.396;-1.510;2023-12-07T01:20:35;99848.44;;;3.60;100.00
55592;BME280;41454;53.396;-1.510;2023-12-07T01:23:03;99844.88;;;3.46;100.00
55592;BME280;41454;53.396;-1.510;2023-12-07T01:25:31;99845.58;;;4.08;100.00
55592;BME280;41454;53.396;-1.510;2023-12-07T01:27:58;99844.95;;;3.89;100.00
55592;BME280;41454;53.396;-1.510;2023-12-07T01:30:25;99842.69;;;3.96;100.00
55592;BME280;41454;53.396;-1.510;2023-12-07T01:32:52;99835.48;;;3.85;100.00
55592;BME280;41454;53.396;-1.510;2023-12-07T01:35:20;99832.00;;;3.55;100.00
55592;BME280;41454;53.396;-1.510;2023-12-07T01:37:47;99841.62;;;3.99;100.00
55592;BME280;41454;53.396;-1.510;2023-12-07T01:40:14;99841.77;;;3.49;100.00
55592;BME280;41454;53.396;-1.510;2023-12-07T01:42:49;99839.57;;;3.78;100.00
55592;BME280;41454;53.396;-1.510;2023-12-07T01:45:17;99836.27;;;2.84;100.00
55592;BME280;41454;53.396;-1.510;2023-12-07T01:47:44;99840.64;;;3.49;100.00
55592;BME280;41454;53.396;-1.510;2023-12-07T01:50:13;99838.46;;;3.14;100.00
55592;BME280;41454;53.396;-1.510;2023-12-07T01:52:47;99835.16;;;4.31;100.00
55592;BME280;41454;53.396;-1.510;2023-12-07T01:55:14;99828.18;;;3.26;100.00
55592;BME280;41454;53.396;-1.510;2023-12-07T01:57:44;99819.10;;;4.12;100.00
55592;BME280;41454;53.396;-1.510;2023-12-07T02:00:13;99809.64;;;2.93;100.00
55592;BME280;41454;53.396;-1.510;2023-12-07T02:02:40;99796.13;;;3.18;100.00
55592;BME280;41454;53.396;-1.510;2023-12-07T02:05:08;99787.20;;;3.51;100.00
55592;BME280;41454;53.396;-1.510;2023-12-07T02:07:36;99783.77;;;3.38;100.00
55592;BME280;41454;53.396;-1.510;2023-12-07T02:10:04;99783.80;;;4.34;100.00
55592;BME280;41454;53.396;-1.510;2023-12-07T02:12:31;99784.50;;;3.82;100.00
55592;BME280;41454;53.396;-1.510;2023-12-07T02:14:59;99785.38;;;3.91;100.00
55592;BME280;41454;53.396;-1.510;2023-12-07T02:17:31;99785.29;;;4.33;100.00
55592;BME280;41454;53.396;-1.510;2023-12-07T02:20:05;99781.29;;;4.06;100.00
55592;BME280;41454;53.396;-1.510;2023-12-07T02:22:39;99783.52;;;3.76;100.00
55592;BME280;41454;53.396;-1.510;2023-12-07T02:25:10;99784.38;;;3.14;100.00
55592;BME280;41454;53.396;-1.510;2023-12-07T02:27:39;99786.23;;;3.93;100.00
55592;BME280;41454;53.396;-1.510;2023-12-07T02:30:09;99782.20;;;3.80;100.00
55592;BME280;41454;53.396;-1.510;2023-12-07T02:32:37;99780.95;;;3.89;100.00
55592;BME280;41454;53.396;-1.510;2023-12-07T02:35:05;99772.05;;;4.61;100.00
55592;BME280;41454;53.396;-1.510;2023-12-07T02:37:35;99761.56;;;3.48;100.00
55592;BME280;41454;53.396;-1.510;2023-12-07T02:40:06;99752.07;;;3.15;100.00
55592;BME280;41454;53.396;-1.510;2023-12-07T02:42:33;99737.94;;;2.89;100.00
55592;BME280;41454;53.396;-1.510;2023-12-07T02:45:01;99732.00;;;3.09;100.00
55592;BME280;41454;53.396;-1.510;2023-12-07T02:47:29;99732.75;;;2.78;100.00
55592;BME280;41454;53.396;-1.510;2023-12-07T02:49:57;99735.73;;;3.60;100.00
55592;BME280;41454;53.396;-1.510;2023-12-07T02:52:24;99730.37;;;3.12;100.00
55592;BME280;41454;53.396;-1.510;2023-12-07T02:54:51;99727.08;;;4.02;100.00
55592;BME280;41454;53.396;-1.510;2023-12-07T02:57:18;99725.39;;;3.76;100.00
55592;BME280;41454;53.396;-1.510;2023-12-07T02:59:45;99725.39;;;3.41;100.00
55592;BME280;41454;53.396;-1.510;2023-12-07T03:02:12;99724.39;;;3.00;100.00
55592;BME280;41454;53.396;-1.510;2023-12-07T03:04:39;99724.36;;;4.15;100.00
55592;BME280;41454;53.396;-1.510;2023-12-07T03:07:07;99716.61;;;4.33;100.00
55592;BME280;41454;53.396;-1.510;2023-12-07T03:09:33;99712.54;;;4.79;100.00
55592;BME280;41454;53.396;-1.510;2023-12-07T03:12:00;99709.70;;;5.30;100.00
55592;BME280;41454;53.396;-1.510;2023-12-07T03:14:27;99706.88;;;4.93;100.00
55592;BME280;41454;53.396;-1.510;2023-12-07T03:16:54;99710.11;;;4.14;100.00
55592;BME280;41454;53.396;-1.510;2023-12-07T03:19:21;99710.61;;;3.59;100.00
55592;BME280;41454;53.396;-1.510;2023-12-07T03:21:49;99707.44;;;3.19;100.00
55592;BME280;41454;53.396;-1.510;2023-12-07T03:24:16;99706.29;;;3.38;100.00
55592;BME280;41454;53.396;-1.510;2023-12-07T03:26:43;99696.49;;;4.08;100.00
55592;BME280;41454;53.396;-1.510;2023-12-07T03:29:11;99691.72;;;3.69;100.00
55592;BME280;41454;53.396;-1.510;2023-12-07T03:31:39;99681.01;;;3.14;100.00
55592;BME280;41454;53.396;-1.510;2023-12-07T03:34:06;99679.00;;;2.86;100.00
55592;BME280;41454;53.396;-1.510;2023-12-07T03:36:34;99671.71;;;3.41;100.00
55592;BME280;41454;53.396;-1.510;2023-12-07T03:39:01;99670.82;;;3.81;100.00
55592;BME280;41454;53.396;-1.510;2023-12-07T03:41:27;99675.42;;;3.71;100.00
55592;BME280;41454;53.396;-1.510;2023-12-07T03:43:54;99667.50;;;4.02;100.00
55592;BME280;41454;53.396;-1.510;2023-12-07T03:46:21;99659.15;;;3.71;100.00
55592;BME280;41454;53.396;-1.510;2023-12-07T03:48:48;99651.07;;;4.29;100.00
55592;BME280;41454;53.396;-1.510;2023-12-07T03:51:15;99646.16;;;3.54;100.00
55592;BME280;41454;53.396;-1.510;2023-12-07T03:53:43;99649.31;;;3.31;100.00
55592;BME280;41454;53.396;-1.510;2023-12-07T03:56:10;99639.72;;;2.09;100.00
55592;BME280;41454;53.396;-1.510;2023-12-07T03:58:38;99640.52;;;3.07;100.00
55592;BME280;41454;53.396;-1.510;2023-12-07T04:01:05;99634.12;;;4.18;100.00
55592;BME280;41454;53.396;-1.510;2023-12-07T04:03:31;99632.36;;;4.04;100.00
55592;BME280;41454;53.396;-1.510;2023-12-07T04:05:58;99637.08;;;3.60;100.00
55592;BME280;41454;53.396;-1.510;2023-12-07T04:08:25;99630.93;;;3.40;100.00
55592;BME280;41454;53.396;-1.510;2023-12-07T04:10:53;99627.53;;;3.52;100.00
55592;BME280;41454;53.396;-1.510;2023-12-07T04:13:20;99621.52;;;2.91;100.00
55592;BME280;41454;53.396;-1.510;2023-12-07T04:15:47;99613.98;;;3.59;100.00
55592;BME280;41454;53.396;-1.510;2023-12-07T04:18:14;99611.76;;;3.25;100.00
55592;BME280;41454;53.396;-1.510;2023-12-07T04:20:41;99609.52;;;3.86;100.00
55592;BME280;41454;53.396;-1.510;2023-12-07T04:23:09;99602.90;;;2.67;100.00
55592;BME280;41454;53.396;-1.510;2023-12-07T04:25:36;99595.39;;;3.62;100.00
55592;BME280;41454;53.396;-1.510;2023-12-07T04:28:04;99591.91;;;3.58;100.00
55592;BME280;41454;53.396;-1.510;2023-12-07T04:30:31;99586.30;;;3.63;100.00
55592;BME280;41454;53.396;-1.510;2023-12-07T04:32:57;99583.06;;;3.47;100.00
55592;BME280;41454;53.396;-1.510;2023-12-07T04:35:24;99580.70;;;2.55;100.00
55592;BME280;41454;53.396;-1.510;2023-12-07T04:37:52;99577.32;;;3.24;100.00
55592;BME280;41454;53.396;-1.510;2023-12-07T04:40:19;99571.34;;;2.88;100.00
55592;BME280;41454;53.396;-1.510;2023-12-07T04:42:47;99563.21;;;3.08;100.00
55592;BME280;41454;53.396;-1.510;2023-12-07T04:45:14;99556.63;;;2.98;100.00
55592;BME280;41454;53.396;-1.510;2023-12-07T04:47:41;99559.38;;;3.07;100.00
55592;BME280;41454;53.396;-1.510;2023-12-07T04:50:09;99553.25;;;2.31;100.00
55592;BME280;41454;53.396;-1.510;2023-12-07T04:52:36;99551.45;;;3.39;100.00
55592;BME280;41454;53.396;-1.510;2023-12-07T04:55:04;99552.09;;;3.25;100.00
55592;BME280;41454;53.396;-1.510;2023-12-07T04:57:32;99553.18;;;3.32;100.00
55592;BME280;41454;53.396;-1.510;2023-12-07T04:59:59;99552.53;;;2.74;100.00
55592;BME280;41454;53.396;-1.510;2023-12-07T05:02:27;99551.32;;;2.55;100.00
55592;BME280;41454;53.396;-1.510;2023-12-07T05:04:54;99552.99;;;3.36;100.00
55592;BME280;41454;53.396;-1.510;2023-12-07T05:07:21;99552.91;;;3.59;100.00
55592;BME280;41454;53.396;-1.510;2023-12-07T05:09:48;99551.84;;;3.43;100.00
55592;BME280;41454;53.396;-1.510;2023-12-07T05:12:15;99550.65;;;3.01;100.00
55592;BME280;41454;53.396;-1.510;2023-12-07T05:14:42;99549.09;;;3.25;100.00
55592;BME280;41454;53.396;-1.510;2023-12-07T05:17:10;99545.19;;;2.30;100.00
55592;BME280;41454;53.396;-1.510;2023-12-07T05:19:37;99539.50;;;3.01;100.00
55592;BME280;41454;53.396;-1.510;2023-12-07T05:22:04;99533.75;;;3.25;100.00
55592;BME280;41454;53.396;-1.510;2023-12-07T05:24:31;99527.39;;;3.21;100.00
55592;BME280;41454;53.396;-1.510;2023-12-07T05:26:59;99534.52;;;3.64;100.00
55592;BME280;41454;53.396;-1.510;2023-12-07T05:29:26;99531.97;;;3.98;100.00
55592;BME280;41454;53.396;-1.510;2023-12-07T05:31:53;99530.15;;;4.27;100.00
55592;BME280;41454;53.396;-1.510;2023-12-07T05:34:20;99528.32;;;4.61;100.00
55592;BME280;41454;53.396;-1.510;2023-12-07T05:36:47;99522.52;;;5.06;100.00
55592;BME280;41454;53.396;-1.510;2023-12-07T05:39:14;99521.80;;;4.52;100.00
55592;BME280;41454;53.396;-1.510;2023-12-07T05:41:41;99520.86;;;4.96;100.00
55592;BME280;41454;53.396;-1.510;2023-12-07T05:44:09;99518.64;;;4.07;100.00
55592;BME280;41454;53.396;-1.510;2023-12-07T05:46:36;99510.63;;;4.11;100.00
55592;BME280;41454;53.396;-1.510;2023-12-07T05:49:39;99506.98;;;2.90;100.00
55592;BME280;41454;53.396;-1.510;2023-12-07T05:52:06;99497.41;;;3.31;100.00
55592;BME280;41454;53.396;-1.510;2023-12-07T05:54:32;99497.16;;;3.93;100.00
55592;BME280;41454;53.396;-1.510;2023-12-07T05:56:59;99497.56;;;3.47;100.00
55592;BME280;41454;53.396;-1.510;2023-12-07T05:59:27;99488.06;;;3.65;100.00
55592;BME280;41454;53.396;-1.510;2023-12-07T06:01:54;99485.04;;;3.33;100.00
55592;BME280;41454;53.396;-1.510;2023-12-07T06:04:26;99479.17;;;3.24;100.00
55592;BME280;41454;53.396;-1.510;2023-12-07T06:06:53;99478.11;;;3.27;100.00
55592;BME280;41454;53.396;-1.510;2023-12-07T06:09:21;99472.21;;;2.82;100.00
55592;BME280;41454;53.396;-1.510;2023-12-07T06:11:48;99468.82;;;2.77;100.00
55592;BME280;41454;53.396;-1.510;2023-12-07T06:14:16;99462.17;;;2.44;100.00
55592;BME280;41454;53.396;-1.510;2023-12-07T06:16:43;99456.02;;;2.94;100.00
55592;BME280;41454;53.396;-1.510;2023-12-07T06:19:10;99456.17;;;2.42;100.00
55592;BME280;41454;53.396;-1.510;2023-12-07T06:21:37;99451.90;;;2.62;100.00
55592;BME280;41454;53.396;-1.510;2023-12-07T06:24:05;99452.45;;;3.18;100.00
55592;BME280;41454;53.396;-1.510;2023-12-07T06:26:32;99452.12;;;3.06;100.00
55592;BME280;41454;53.396;-1.510;2023-12-07T06:28:58;99449.93;;;2.99;100.00
55592;BME280;41454;53.396;-1.510;2023-12-07T06:31:26;99446.25;;;2.55;100.00
55592;BME280;41454;53.396;-1.510;2023-12-07T06:33:53;99436.33;;;3.22;100.00
55592;BME280;41454;53.396;-1.510;2023-12-07T06:36:21;99430.53;;;2.08;100.00
55592;BME280;41454;53.396;-1.510;2023-12-07T06:38:48;99426.06;;;3.49;100.00
55592;BME280;41454;53.396;-1.510;2023-12-07T06:41:16;99421.44;;;2.79;100.00
55592;BME280;41454;53.396;-1.510;2023-12-07T06:43:43;99417.00;;;3.37;100.00
55592;BME280;41454;53.396;-1.510;2023-12-07T06:46:12;99410.85;;;3.77;100.00
55592;BME280;41454;53.396;-1.510;2023-12-07T06:48:40;99410.96;;;3.32;100.00
55592;BME280;41454;53.396;-1.510;2023-12-07T06:51:08;99403.28;;;2.97;100.00
55592;BME280;41454;53.396;-1.510;2023-12-07T06:53:35;99401.23;;;3.18;100.00
55592;BME280;41454;53.396;-1.510;2023-12-07T06:56:02;99394.45;;;3.32;100.00
55592;BME280;41454;53.396;-1.510;2023-12-07T06:58:29;99398.08;;;2.99;100.00
55592;BME280;41454;53.396;-1.510;2023-12-07T07:00:56;99385.12;;;3.78;100.00
55592;BME280;41454;53.396;-1.510;2023-12-07T07:03:23;99380.44;;;2.68;100.00
55592;BME280;41454;53.396;-1.510;2023-12-07T07:05:50;99384.19;;;3.77;100.00
55592;BME280;41454;53.396;-1.510;2023-12-07T07:08:18;99386.41;;;3.11;100.00
55592;BME280;41454;53.396;-1.510;2023-12-07T07:10:45;99380.04;;;3.48;100.00
55592;BME280;41454;53.396;-1.510;2023-12-07T07:13:13;99376.87;;;3.32;100.00
55592;BME280;41454;53.396;-1.510;2023-12-07T07:15:41;99376.59;;;2.65;100.00
55592;BME280;41454;53.396;-1.510;2023-12-07T07:18:08;99368.47;;;3.32;100.00
55592;BME280;41454;53.396;-1.510;2023-12-07T07:20:35;99367.74;;;3.37;100.00
55592;BME280;41454;53.396;-1.510;2023-12-07T07:23:02;99367.48;;;3.28;100.00
55592;BME280;41454;53.396;-1.510;2023-12-07T07:25:30;99359.69;;;3.14;100.00
55592;BME280;41454;53.396;-1.510;2023-12-07T07:27:56;99358.75;;;3.80;100.00
55592;BME280;41454;53.396;-1.510;2023-12-07T07:30:24;99354.08;;;2.06;100.00
55592;BME280;41454;53.396;-1.510;2023-12-07T07:32:51;99353.30;;;3.23;100.00
55592;BME280;41454;53.396;-1.510;2023-12-07T07:35:18;99345.00;;;2.55;100.00
55592;BME280;41454;53.396;-1.510;2023-12-07T07:37:45;99348.59;;;3.08;100.00
55592;BME280;41454;53.396;-1.510;2023-12-07T07:40:13;99338.39;;;2.20;100.00
55592;BME280;41454;53.396;-1.510;2023-12-07T07:42:40;99344.56;;;2.06;100.00
55592;BME280;41454;53.396;-1.510;2023-12-07T07:45:08;99348.58;;;2.24;100.00
55592;BME280;41454;53.396;-1.510;2023-12-07T07:47:35;99349.60;;;2.46;100.00
55592;BME280;41454;53.396;-1.510;2023-12-07T07:50:05;99350.35;;;2.54;100.00
55592;BME280;41454;53.396;-1.510;2023-12-07T07:52:33;99343.19;;;2.68;100.00
55592;BME280;41454;53.396;-1.510;2023-12-07T07:55:00;99343.88;;;2.51;100.00
55592;BME280;41454;53.396;-1.510;2023-12-07T07:57:27;99341.38;;;2.09;100.00
55592;BME280;41454;53.396;-1.510;2023-12-07T07:59:55;99339.99;;;2.14;100.00
55592;BME280;41454;53.396;-1.510;2023-12-07T08:02:22;99341.44;;;1.68;100.00
55592;BME280;41454;53.396;-1.510;2023-12-07T08:04:49;99333.87;;;2.64;100.00
55592;BME280;41454;53.396;-1.510;2023-12-07T08:07:16;99330.15;;;1.42;100.00
55592;BME280;41454;53.396;-1.510;2023-12-07T08:09:43;99327.33;;;2.33;100.00
55592;BME280;41454;53.396;-1.510;2023-12-07T08:12:11;99322.70;;;2.10;100.00
55592;BME280;41454;53.396;-1.510;2023-12-07T08:14:38;99326.72;;;1.85;100.00
55592;BME280;41454;53.396;-1.510;2023-12-07T08:17:05;99326.97;;;1.96;100.00
55592;BME280;41454;53.396;-1.510;2023-12-07T08:19:32;99318.05;;;2.15;100.00
55592;BME280;41454;53.396;-1.510;2023-12-07T08:22:00;99321.94;;;2.35;100.00
55592;BME280;41454;53.396;-1.510;2023-12-07T08:24:27;99315.03;;;2.13;100.00
55592;BME280;41454;53.396;-1.510;2023-12-07T08:26:54;99310.28;;;2.82;100.00
55592;BME280;41454;53.396;-1.510;2023-12-07T08:29:22;99310.50;;;2.83;100.00
55592;BME280;41454;53.396;-1.510;2023-12-07T08:31:48;99305.70;;;3.15;100.00
55592;BME280;41454;53.396;-1.510;2023-12-07T08:34:16;99296.54;;;2.90;100.00
55592;BME280;41454;53.396;-1.510;2023-12-07T08:36:43;99291.76;;;3.05;100.00
55592;BME280;41454;53.396;-1.510;2023-12-07T08:39:10;99288.55;;;2.45;100.00
55592;BME280;41454;53.396;-1.510;2023-12-07T08:41:37;99280.84;;;2.90;100.00
55592;BME280;41454;53.396;-1.510;2023-12-07T08:44:05;99279.65;;;3.02;100.00
55592;BME280;41454;53.396;-1.510;2023-12-07T08:46:33;99272.67;;;2.97;100.00
55592;BME280;41454;53.396;-1.510;2023-12-07T08:49:00;99268.84;;;3.24;100.00
55592;BME280;41454;53.396;-1.510;2023-12-07T08:51:29;99265.84;;;2.99;100.00
55592;BME280;41454;53.396;-1.510;2023-12-07T08:53:57;99269.30;;;3.49;100.00
55592;BME280;41454;53.396;-1.510;2023-12-07T08:56:24;99261.90;;;3.16;100.00
55592;BME280;41454;53.396;-1.510;2023-12-07T08:58:51;99254.86;;;3.38;100.00
55592;BME280;41454;53.396;-1.510;2023-12-07T09:01:18;99252.61;;;3.39;100.00
55592;BME280;41454;53.396;-1.510;2023-12-07T09:03:45;99253.65;;;3.73;100.00
55592;BME280;41454;53.396;-1.510;2023-12-07T09:06:12;99247.19;;;3.21;100.00
55592;BME280;41454;53.396;-1.510;2023-12-07T09:08:39;99240.90;;;3.48;100.00
55592;BME280;41454;53.396;-1.510;2023-12-07T09:11:06;99237.38;;;3.49;100.00
55592;BME280;41454;53.396;-1.510;2023-12-07T09:13:42;99234.82;;;2.67;100.00
55592;BME280;41454;53.396;-1.510;2023-12-07T09:16:09;99230.29;;;3.35;100.00
55592;BME280;41454;53.396;-1.510;2023-12-07T09:18:36;99224.68;;;3.73;100.00
55592;BME280;41454;53.396;-1.510;2023-12-07T09:21:04;99225.17;;;1.75;100.00
55592;BME280;41454;53.396;-1.510;2023-12-07T09:23:32;99222.79;;;3.12;100.00
55592;BME280;41454;53.396;-1.510;2023-12-07T09:25:58;99224.77;;;3.66;100.00
55592;BME280;41454;53.396;-1.510;2023-12-07T09:28:25;99218.92;;;2.07;100.00
55592;BME280;41454;53.396;-1.510;2023-12-07T09:30:52;99214.51;;;3.25;100.00
55592;BME280;41454;53.396;-1.510;2023-12-07T09:33:19;99205.39;;;2.65;100.00
55592;BME280;41454;53.396;-1.510;2023-12-07T09:35:47;99205.63;;;2.98;100.00
55592;BME280;41454;53.396;-1.510;2023-12-07T09:38:14;99204.15;;;3.39;100.00
55592;BME280;41454;53.396;-1.510;2023-12-07T09:40:42;99201.95;;;2.90;100.00
55592;BME280;41454;53.396;-1.510;2023-12-07T09:43:09;99195.52;;;2.58;100.00
55592;BME280;41454;53.396;-1.510;2023-12-07T09:45:37;99191.82;;;2.24;100.00
55592;BME280;41454;53.396;-1.510;2023-12-07T09:48:04;99186.27;;;3.18;100.00
55592;BME280;41454;53.396;-1.510;2023-12-07T09:50:31;99186.84;;;2.41;100.00
55592;BME280;41454;53.396;-1.510;2023-12-07T09:52:59;99182.06;;;3.16;100.00
55592;BME280;41454;53.396;-1.510;2023-12-07T09:55:26;99178.01;;;2.36;100.00
55592;BME280;41454;53.396;-1.510;2023-12-07T09:57:53;99174.34;;;2.78;100.00
55592;BME280;41454;53.396;-1.510;2023-12-07T10:00:21;99173.32;;;3.40;100.00
55592;BME280;41454;53.396;-1.510;2023-12-07T10:02:47;99165.38;;;3.36;100.00
55592;BME280;41454;53.396;-1.510;2023-12-07T10:05:15;99164.57;;;2.78;100.00
55592;BME280;41454;53.396;-1.510;2023-12-07T10:07:43;99164.08;;;2.40;100.00
55592;BME280;41454;53.396;-1.510;2023-12-07T10:10:10;99160.41;;;3.11;100.00
55592;BME280;41454;53.396;-1.510;2023-12-07T10:12:45;99157.87;;;2.81;100.00
55592;BME280;41454;53.396;-1.510;2023-12-07T10:15:13;99158.28;;;3.07;100.00
55592;BME280;41454;53.396;-1.510;2023-12-07T10:17:47;99155.32;;;2.44;100.00
55592;BME280;41454;53.396;-1.510;2023-12-07T10:20:16;99147.18;;;3.72;100.00
55592;BME280;41454;53.396;-1.510;2023-12-07T10:22:43;99146.19;;;3.17;100.00
55592;BME280;41454;53.396;-1.510;2023-12-07T10:25:10;99149.16;;;4.06;100.00
55592;BME280;41454;53.396;-1.510;2023-12-07T10:27:39;99139.12;;;2.42;100.00
55592;BME280;41454;53.396;-1.510;2023-12-07T10:30:09;99141.74;;;3.54;100.00
55592;BME280;41454;53.396;-1.510;2023-12-07T10:32:37;99131.10;;;2.91;100.00
55592;BME280;41454;53.396;-1.510;2023-12-07T10:35:06;99122.85;;;2.58;100.00
55592;BME280;41454;53.396;-1.510;2023-12-07T10:37:33;99124.88;;;2.95;100.00
55592;BME280;41454;53.396;-1.510;2023-12-07T10:40:02;99120.12;;;3.48;100.00
55592;BME280;41454;53.396;-1.510;2023-12-07T10:42:33;99116.25;;;2.24;100.00
55592;BME280;41454;53.396;-1.510;2023-12-07T10:45:04;99111.35;;;3.08;100.00
55592;BME280;41454;53.396;-1.510;2023-12-07T10:47:35;99101.36;;;2.60;100.00
55592;BME280;41454;53.396;-1.510;2023-12-07T10:50:06;99097.33;;;3.37;100.00
55592;BME280;41454;53.396;-1.510;2023-12-07T10:52:35;99088.92;;;3.24;100.00
55592;BME280;41454;53.396;-1.510;2023-12-07T10:55:16;99088.12;;;2.43;100.00
55592;BME280;41454;53.396;-1.510;2023-12-07T10:57:44;99083.21;;;2.72;100.00
55592;BME280;41454;53.396;-1.510;2023-12-07T11:00:13;99069.82;;;3.97;100.00
55592;BME280;41454;53.396;-1.510;2023-12-07T11:02:41;99064.23;;;3.58;100.00
55592;BME280;41454;53.396;-1.510;2023-12-07T11:05:09;99064.95;;;3.61;100.00
55592;BME280;41454;53.396;-1.510;2023-12-07T11:07:46;99058.23;;;3.28;100.00
55592;BME280;41454;53.396;-1.510;2023-12-07T11:10:22;99062.79;;;3.04;100.00
55592;BME280;41454;53.396;-1.510;2023-12-07T11:12:59;99056.38;;;2.75;100.00
55592;BME280;41454;53.396;-1.510;2023-12-07T11:15:27;99047.25;;;3.07;100.00
55592;BME280;41454;53.396;-1.510;2023-12-07T11:17:55;99047.86;;;3.42;100.00
55592;BME280;41454;53.396;-1.510;2023-12-07T11:20:32;99035.00;;;3.17;100.00
55592;BME280;41454;53.396;-1.510;2023-12-07T11:22:59;99039.93;;;3.13;100.00
55592;BME280;41454;53.396;-1.510;2023-12-07T11:25:26;99027.03;;;3.00;100.00
55592;BME280;41454;53.396;-1.510;2023-12-07T11:28:00;99021.80;;;3.04;100.00
55592;BME280;41454;53.396;-1.510;2023-12-07T11:30:28;99022.35;;;3.99;100.00
55592;BME280;41454;53.396;-1.510;2023-12-07T11:32:55;99021.07;;;4.13;100.00
55592;BME280;41454;53.396;-1.510;2023-12-07T11:35:22;99009.36;;;4.67;100.00
55592;BME280;41454;53.396;-1.510;2023-12-07T11:38:06;99008.42;;;3.32;100.00
55592;BME280;41454;53.396;-1.510;2023-12-07T11:40:36;99013.17;;;3.62;100.00
55592;BME280;41454;53.396;-1.510;2023-12-07T11:43:03;99010.52;;;3.69;100.00
55592;BME280;41454;53.396;-1.510;2023-12-07T11:45:40;99001.93;;;3.19;100.00
55592;BME280;41454;53.396;-1.510;2023-12-07T11:48:08;99000.71;;;3.21;100.00
55592;BME280;41454;53.396;-1.510;2023-12-07T11:50:36;99003.68;;;3.65;100.00
55592;BME280;41454;53.396;-1.510;2023-12-07T11:53:05;98992.66;;;3.27;100.00
55592;BME280;41454;53.396;-1.510;2023-12-07T11:55:33;98988.25;;;3.43;100.00
55592;BME280;41454;53.396;-1.510;2023-12-07T11:58:12;98981.27;;;2.55;100.00
55592;BME280;41454;53.396;-1.510;2023-12-07T12:00:40;98972.38;;;3.61;100.00
55592;BME280;41454;53.396;-1.510;2023-12-07T12:03:07;98972.26;;;3.34;100.00
55592;BME280;41454;53.396;-1.510;2023-12-07T12:05:34;98962.78;;;3.53;100.00
55592;BME280;41454;53.396;-1.510;2023-12-07T12:08:01;98962.64;;;3.69;100.00
55592;BME280;41454;53.396;-1.510;2023-12-07T12:10:29;98949.96;;;4.02;100.00
55592;BME280;41454;53.396;-1.510;2023-12-07T12:12:55;98948.76;;;3.86;100.00
55592;BME280;41454;53.396;-1.510;2023-12-07T12:15:23;98951.34;;;3.72;100.00
55592;BME280;41454;53.396;-1.510;2023-12-07T12:17:50;98949.87;;;3.61;100.00
55592;BME280;41454;53.396;-1.510;2023-12-07T12:20:17;98936.04;;;4.15;100.00
55592;BME280;41454;53.396;-1.510;2023-12-07T12:22:44;98924.84;;;4.29;100.00
55592;BME280;41454;53.396;-1.510;2023-12-07T12:25:12;98908.86;;;4.39;100.00
55592;BME280;41454;53.396;-1.510;2023-12-07T12:27:40;98915.21;;;3.66;100.00
55592;BME280;41454;53.396;-1.510;2023-12-07T12:30:08;98909.12;;;3.76;100.00
55592;BME280;41454;53.396;-1.510;2023-12-07T12:32:42;98909.66;;;3.97;100.00
55592;BME280;41454;53.396;-1.510;2023-12-07T12:35:10;98903.76;;;4.31;100.00
55592;BME280;41454;53.396;-1.510;2023-12-07T12:37:39;98899.11;;;3.91;100.00
55592;BME280;41454;53.396;-1.510;2023-12-07T12:40:07;98896.92;;;3.68;100.00
55592;BME280;41454;53.396;-1.510;2023-12-07T12:42:35;98882.67;;;4.16;100.00
55592;BME280;41454;53.396;-1.510;2023-12-07T12:45:02;98885.01;;;4.29;100.00
55592;BME280;41454;53.396;-1.510;2023-12-07T12:47:29;98880.53;;;3.92;100.00
55592;BME280;41454;53.396;-1.510;2023-12-07T12:49:57;98868.32;;;3.87;100.00
55592;BME280;41454;53.396;-1.510;2023-12-07T12:52:24;98871.61;;;3.89;100.00
55592;BME280;41454;53.396;-1.510;2023-12-07T12:54:51;98864.33;;;3.42;100.00